sensor_id;sensor_type;location;lat;lon;timestamp;pressure;altitude;pressure_sealevel;temperature;humidity
59829;BME280;45708;51.848;107.620;2022-08-25T00:01:36;94513.94;;;8.03;91.89
59829;BME280;45708;51.848;107.620;2022-08-25T00:06:38;94529.28;;;8.06;92.20
59829;BME280;45708;51.848;107.620;2022-08-25T00:11:40;94532.28;;;8.10;91.96
59829;BME280;45708;51.848;107.620;2022-08-25T00:16:42;94526.44;;;8.08;92.27
59829;BME280;45708;51.848;107.620;2022-08-25T00:21:43;94533.31;;;8.09;92.56
59829;BME280;45708;51.848;107.620;2022-08-25T00:26:47;94527.00;;;8.10;92.47
59829;BME280;45708;51.848;107.620;2022-08-25T00:31:48;94532.75;;;8.25;92.43
59829;BME280;45708;51.848;107.620;2022-08-25T00:36:49;94535.47;;;8.37;92.06
59829;BME280;45708;51.848;107.620;2022-08-25T00:41:53;94531.78;;;8.63;92.67
59829;BME280;45708;51.848;107.620;2022-08-25T00:46:56;94538.25;;;8.78;91.90
59829;BME280;45708;51.848;107.620;2022-08-25T00:51:59;94536.28;;;8.74;92.07
59829;BME280;45708;51.848;107.620;2022-08-25T00:57:03;94542.13;;;8.76;92.03
59829;BME280;45708;51.848;107.620;2022-08-25T01:02:07;94518.28;;;8.89;92.09
59829;BME280;45708;51.848;107.620;2022-08-25T01:07:08;94545.28;;;9.14;92.38
59829;BME280;45708;51.848;107.620;2022-08-25T01:12:09;94543.09;;;9.11;92.00
59829;BME280;45708;51.848;107.620;2022-08-25T01:17:11;94546.91;;;9.15;92.17
59829;BME280;45708;51.848;107.620;2022-08-25T01:22:12;94541.59;;;9.34;92.01
59829;BME280;45708;51.848;107.620;2022-08-25T01:27:13;94539.28;;;9.79;91.56
59829;BME280;45708;51.848;107.620;2022-08-25T01:32:14;94528.69;;;10.32;91.05
59829;BME280;45708;51.848;107.620;2022-08-25T01:37:15;94517.69;;;10.87;89.97
59829;BME280;45708;51.848;107.620;2022-08-25T01:42:23;94538.19;;;11.09;88.61
59829;BME280;45708;51.848;107.620;2022-08-25T01:47:28;94517.50;;;10.65;88.88
59829;BME280;45708;51.848;107.620;2022-08-25T01:52:37;94536.91;;;13.39;86.37
59829;BME280;45708;51.848;107.620;2022-08-25T01:57:44;94530.44;;;15.89;81.14
59829;BME280;45708;51.848;107.620;2022-08-25T02:02:45;94530.59;;;14.37;77.51
59829;BME280;45708;51.848;107.620;2022-08-25T02:07:46;94559.31;;;12.44;81.73
59829;BME280;45708;51.848;107.620;2022-08-25T02:12:47;94565.31;;;11.44;83.90
59829;BME280;45708;51.848;107.620;2022-08-25T02:17:48;94580.69;;;10.67;84.10
59829;BME280;45708;51.848;107.620;2022-08-25T02:22:52;94578.44;;;9.94;85.32
59829;BME280;45708;51.848;107.620;2022-08-25T02:27:53;94585.81;;;9.32;86.83
59829;BME280;45708;51.848;107.620;2022-08-25T02:32:54;94562.28;;;9.00;87.66
59829;BME280;45708;51.848;107.620;2022-08-25T02:37:55;94576.78;;;9.09;88.71
59829;BME280;45708;51.848;107.620;2022-08-25T02:42:56;94553.84;;;9.28;88.56
59829;BME280;45708;51.848;107.620;2022-08-25T02:47:57;94555.28;;;9.42;88.97
59829;BME280;45708;51.848;107.620;2022-08-25T02:52:58;94561.19;;;9.68;89.11
59829;BME280;45708;51.848;107.620;2022-08-25T02:57:58;94570.63;;;9.99;89.85
59829;BME280;45708;51.848;107.620;2022-08-25T03:02:59;94567.59;;;10.25;89.14
59829;BME280;45708;51.848;107.620;2022-08-25T03:08:00;94594.56;;;10.74;89.18
59829;BME280;45708;51.848;107.620;2022-08-25T03:13:01;94586.41;;;10.76;89.33
59829;BME280;45708;51.848;107.620;2022-08-25T03:18:03;94585.34;;;10.88;88.45
59829;BME280;45708;51.848;107.620;2022-08-25T03:23:04;94584.75;;;10.98;88.77
59829;BME280;45708;51.848;107.620;2022-08-25T03:28:06;94596.91;;;10.99;87.38
59829;BME280;45708;51.848;107.620;2022-08-25T03:33:07;94598.91;;;10.80;87.12
59829;BME280;45708;51.848;107.620;2022-08-25T03:38:08;94595.03;;;10.71;87.75
59829;BME280;45708;51.848;107.620;2022-08-25T03:43:09;94589.34;;;11.03;85.14
59829;BME280;45708;51.848;107.620;2022-08-25T03:48:10;94593.53;;;11.55;84.81
59829;BME280;45708;51.848;107.620;2022-08-25T03:53:11;94608.72;;;11.77;83.14
59829;BME280;45708;51.848;107.620;2022-08-25T03:58:13;94595.31;;;11.95;81.47
59829;BME280;45708;51.848;107.620;2022-08-25T04:03:14;94588.13;;;12.07;80.90
59829;BME280;45708;51.848;107.620;2022-08-25T04:08:15;94581.38;;;12.50;81.39
59829;BME280;45708;51.848;107.620;2022-08-25T04:13:16;94593.06;;;12.54;79.79
59829;BME280;45708;51.848;107.620;2022-08-25T04:18:17;94586.19;;;12.53;80.84
59829;BME280;45708;51.848;107.620;2022-08-25T04:23:18;94596.41;;;12.44;79.46
59829;BME280;45708;51.848;107.620;2022-08-25T04:28:19;94607.00;;;12.28;79.33
59829;BME280;45708;51.848;107.620;2022-08-25T04:33:19;94617.03;;;12.26;79.59
59829;BME280;45708;51.848;107.620;2022-08-25T04:38:20;94618.69;;;12.32;79.11
59829;BME280;45708;51.848;107.620;2022-08-25T04:43:21;94611.03;;;12.86;80.15
59829;BME280;45708;51.848;107.620;2022-08-25T04:48:23;94615.84;;;12.89;79.18
59829;BME280;45708;51.848;107.620;2022-08-25T04:53:24;94614.16;;;12.83;77.74
59829;BME280;45708;51.848;107.620;2022-08-25T04:58:25;94622.81;;;12.95;74.57
59829;BME280;45708;51.848;107.620;2022-08-25T05:03:26;94615.63;;;13.12;74.84
59829;BME280;45708;51.848;107.620;2022-08-25T05:08:27;94607.41;;;13.57;75.77
59829;BME280;45708;51.848;107.620;2022-08-25T05:13:28;94594.53;;;13.66;75.19
59829;BME280;45708;51.848;107.620;2022-08-25T05:18:30;94613.28;;;13.37;73.35
59829;BME280;45708;51.848;107.620;2022-08-25T05:23:32;94606.50;;;13.03;73.13
59829;BME280;45708;51.848;107.620;2022-08-25T05:28:33;94609.19;;;13.08;72.82
59829;BME280;45708;51.848;107.620;2022-08-25T05:33:35;94606.53;;;13.47;71.84
59829;BME280;45708;51.848;107.620;2022-08-25T05:38:37;94609.34;;;13.62;72.31
59829;BME280;45708;51.848;107.620;2022-08-25T05:43:39;94603.81;;;13.42;70.56
59829;BME280;45708;51.848;107.620;2022-08-25T05:48:41;94596.63;;;13.64;69.13
59829;BME280;45708;51.848;107.620;2022-08-25T05:53:44;94598.81;;;13.72;65.66
59829;BME280;45708;51.848;107.620;2022-08-25T05:58:46;94596.41;;;13.97;67.46
59829;BME280;45708;51.848;107.620;2022-08-25T06:03:47;94597.94;;;13.88;68.94
59829;BME280;45708;51.848;107.620;2022-08-25T06:08:49;94597.31;;;14.08;68.42
59829;BME280;45708;51.848;107.620;2022-08-25T06:13:50;94611.22;;;14.47;67.42
59829;BME280;45708;51.848;107.620;2022-08-25T06:18:51;94596.66;;;14.23;65.01
59829;BME280;45708;51.848;107.620;2022-08-25T06:23:52;94595.53;;;14.19;68.05
59829;BME280;45708;51.848;107.620;2022-08-25T06:28:53;94601.19;;;14.27;66.22
59829;BME280;45708;51.848;107.620;2022-08-25T06:33:54;94604.84;;;14.48;67.07
59829;BME280;45708;51.848;107.620;2022-08-25T06:38:55;94612.63;;;14.28;63.19
59829;BME280;45708;51.848;107.620;2022-08-25T06:43:57;94625.34;;;14.53;63.18
59829;BME280;45708;51.848;107.620;2022-08-25T06:48:58;94613.88;;;14.47;62.47
59829;BME280;45708;51.848;107.620;2022-08-25T06:53:59;94628.38;;;14.40;63.59
59829;BME280;45708;51.848;107.620;2022-08-25T06:59:01;94609.56;;;13.82;65.22
59829;BME280;45708;51.848;107.620;2022-08-25T07:04:04;94624.28;;;13.95;65.02
59829;BME280;45708;51.848;107.620;2022-08-25T07:09:09;94628.34;;;14.03;63.14
59829;BME280;45708;51.848;107.620;2022-08-25T07:14:13;94626.81;;;14.12;64.89
59829;BME280;45708;51.848;107.620;2022-08-25T07:19:15;94636.97;;;14.20;65.01
59829;BME280;45708;51.848;107.620;2022-08-25T07:24:16;94632.03;;;14.60;65.18
59829;BME280;45708;51.848;107.620;2022-08-25T07:34:20;94633.72;;;14.72;64.20
59829;BME280;45708;51.848;107.620;2022-08-25T07:39:21;94622.00;;;14.68;62.76
59829;BME280;45708;51.848;107.620;2022-08-25T07:44:23;94644.56;;;15.02;63.59
59829;BME280;45708;51.848;107.620;2022-08-25T07:49:25;94645.53;;;14.86;60.54
59829;BME280;45708;51.848;107.620;2022-08-25T07:54:27;94646.50;;;14.75;62.38
59829;BME280;45708;51.848;107.620;2022-08-25T07:59:28;94648.69;;;14.83;62.25
59829;BME280;45708;51.848;107.620;2022-08-25T08:04:29;94651.44;;;14.98;62.26
59829;BME280;45708;51.848;107.620;2022-08-25T08:09:29;94641.44;;;15.15;59.87
59829;BME280;45708;51.848;107.620;2022-08-25T08:14:30;94654.75;;;15.15;60.41
59829;BME280;45708;51.848;107.620;2022-08-25T08:19:31;94651.63;;;15.34;58.90
59829;BME280;45708;51.848;107.620;2022-08-25T08:24:33;94647.81;;;15.14;57.10
59829;BME280;45708;51.848;107.620;2022-08-25T08:29:35;94659.84;;;15.22;59.60
59829;BME280;45708;51.848;107.620;2022-08-25T08:34:36;94662.41;;;15.07;57.57
59829;BME280;45708;51.848;107.620;2022-08-25T08:39:37;94678.09;;;15.03;56.79
59829;BME280;45708;51.848;107.620;2022-08-25T08:50:05;94692.88;;;14.89;54.42
59829;BME280;45708;51.848;107.620;2022-08-25T08:55:26;94667.16;;;14.63;54.43
59829;BME280;45708;51.848;107.620;2022-08-25T09:00:28;94687.41;;;14.69;56.18
59829;BME280;45708;51.848;107.620;2022-08-25T09:05:39;94687.47;;;14.79;54.32
59829;BME280;45708;51.848;107.620;2022-08-25T09:27:27;94690.66;;;14.81;51.77
59829;BME280;45708;51.848;107.620;2022-08-25T09:32:34;94696.50;;;14.78;50.38
59829;BME280;45708;51.848;107.620;2022-08-25T09:37:35;94692.59;;;14.85;50.65
59829;BME280;45708;51.848;107.620;2022-08-25T09:42:47;94699.72;;;14.80;47.70
59829;BME280;45708;51.848;107.620;2022-08-25T09:47:48;94699.19;;;14.46;48.62
59829;BME280;45708;51.848;107.620;2022-08-25T09:52:49;94709.88;;;14.29;49.00
59829;BME280;45708;51.848;107.620;2022-08-25T09:57:55;94710.25;;;14.16;47.72
59829;BME280;45708;51.848;107.620;2022-08-25T10:03:01;94711.88;;;14.17;47.74
59829;BME280;45708;51.848;107.620;2022-08-25T10:08:11;94717.72;;;14.19;48.17
59829;BME280;45708;51.848;107.620;2022-08-25T10:13:20;94726.69;;;14.13;48.63
59829;BME280;45708;51.848;107.620;2022-08-25T10:18:27;94734.38;;;13.87;47.79
59829;BME280;45708;51.848;107.620;2022-08-25T10:23:29;94730.19;;;13.48;48.46
59829;BME280;45708;51.848;107.620;2022-08-25T10:28:36;94746.44;;;13.34;48.79
59829;BME280;45708;51.848;107.620;2022-08-25T10:39:00;94748.84;;;13.36;49.04
59829;BME280;45708;51.848;107.620;2022-08-25T10:49:40;94735.81;;;13.34;48.92
59829;BME280;45708;51.848;107.620;2022-08-25T10:55:17;94741.00;;;13.24;49.66
59829;BME280;45708;51.848;107.620;2022-08-25T11:00:22;94738.09;;;12.92;50.45
59829;BME280;45708;51.848;107.620;2022-08-25T11:05:30;94740.81;;;12.80;50.47
59829;BME280;45708;51.848;107.620;2022-08-25T11:10:44;94739.06;;;12.69;50.44
59829;BME280;45708;51.848;107.620;2022-08-25T11:16:11;94750.94;;;12.67;50.10
59829;BME280;45708;51.848;107.620;2022-08-25T11:26:46;94746.06;;;12.30;51.35
59829;BME280;45708;51.848;107.620;2022-08-25T11:31:50;94750.28;;;12.14;51.69
59829;BME280;45708;51.848;107.620;2022-08-25T11:37:18;94752.06;;;11.97;52.56
59829;BME280;45708;51.848;107.620;2022-08-25T11:57:34;94775.41;;;11.02;56.07
59829;BME280;45708;51.848;107.620;2022-08-25T12:02:42;94782.63;;;10.83;56.61
59829;BME280;45708;51.848;107.620;2022-08-25T12:13:02;94791.44;;;10.35;58.61
59829;BME280;45708;51.848;107.620;2022-08-25T12:23:34;94819.19;;;10.26;59.50
59829;BME280;45708;51.848;107.620;2022-08-25T12:29:06;94822.28;;;10.23;59.09
59829;BME280;45708;51.848;107.620;2022-08-25T12:39:36;94830.22;;;10.16;59.95
59829;BME280;45708;51.848;107.620;2022-08-25T12:44:45;94835.06;;;10.19;60.15
59829;BME280;45708;51.848;107.620;2022-08-25T12:49:46;94830.69;;;10.13;60.65
59829;BME280;45708;51.848;107.620;2022-08-25T12:59:55;94835.38;;;9.93;62.39
59829;BME280;45708;51.848;107.620;2022-08-25T13:10:21;94854.59;;;9.82;64.07
59829;BME280;45708;51.848;107.620;2022-08-25T13:15:45;94856.25;;;9.76;64.95
59829;BME280;45708;51.848;107.620;2022-08-25T13:20:53;94846.81;;;9.68;65.88
59829;BME280;45708;51.848;107.620;2022-08-25T13:25:55;94856.66;;;9.61;66.64
59829;BME280;45708;51.848;107.620;2022-08-25T13:36:15;94860.09;;;9.37;68.58
59829;BME280;45708;51.848;107.620;2022-08-25T13:41:20;94860.75;;;9.32;68.18
59829;BME280;45708;51.848;107.620;2022-08-25T13:46:21;94872.53;;;9.30;68.84
59829;BME280;45708;51.848;107.620;2022-08-25T13:51:25;94876.19;;;9.29;69.10
59829;BME280;45708;51.848;107.620;2022-08-25T13:56:40;94870.19;;;9.22;69.59
59829;BME280;45708;51.848;107.620;2022-08-25T14:01:46;94861.66;;;9.20;70.07
59829;BME280;45708;51.848;107.620;2022-08-25T14:07:03;94860.03;;;9.19;70.43
59829;BME280;45708;51.848;107.620;2022-08-25T14:12:04;94864.09;;;9.21;70.63
59829;BME280;45708;51.848;107.620;2022-08-25T14:17:07;94859.81;;;9.20;71.06
59829;BME280;45708;51.848;107.620;2022-08-25T14:22:08;94856.50;;;9.06;71.54
59829;BME280;45708;51.848;107.620;2022-08-25T14:27:11;94858.66;;;8.91;71.94
59829;BME280;45708;51.848;107.620;2022-08-25T14:32:14;94862.22;;;8.72;72.83
59829;BME280;45708;51.848;107.620;2022-08-25T14:37:18;94871.81;;;8.60;72.96
59829;BME280;45708;51.848;107.620;2022-08-25T14:42:19;94875.13;;;8.48;73.56
59829;BME280;45708;51.848;107.620;2022-08-25T14:47:20;94880.84;;;8.39;73.80
59829;BME280;45708;51.848;107.620;2022-08-25T14:52:25;94888.16;;;8.30;74.25
59829;BME280;45708;51.848;107.620;2022-08-25T14:57:27;94889.81;;;8.18;74.39
59829;BME280;45708;51.848;107.620;2022-08-25T15:02:28;94886.25;;;7.92;75.04
59829;BME280;45708;51.848;107.620;2022-08-25T15:07:31;94894.38;;;7.78;75.46
59829;BME280;45708;51.848;107.620;2022-08-25T15:12:32;94905.75;;;7.65;75.85
59829;BME280;45708;51.848;107.620;2022-08-25T15:17:33;94898.28;;;7.62;76.44
59829;BME280;45708;51.848;107.620;2022-08-25T15:22:34;94906.56;;;7.59;76.24
59829;BME280;45708;51.848;107.620;2022-08-25T15:27:35;94906.19;;;7.49;76.34
59829;BME280;45708;51.848;107.620;2022-08-25T15:32:36;94904.16;;;7.38;76.40
59829;BME280;45708;51.848;107.620;2022-08-25T15:37:37;94913.06;;;7.23;77.55
59829;BME280;45708;51.848;107.620;2022-08-25T15:42:38;94925.78;;;7.13;77.82
59829;BME280;45708;51.848;107.620;2022-08-25T15:47:39;94926.16;;;6.97;78.34
59829;BME280;45708;51.848;107.620;2022-08-25T15:52:40;94930.41;;;6.85;78.67
59829;BME280;45708;51.848;107.620;2022-08-25T15:57:41;94929.97;;;6.75;79.21
59829;BME280;45708;51.848;107.620;2022-08-25T16:02:42;94927.78;;;6.85;77.97
59829;BME280;45708;51.848;107.620;2022-08-25T16:07:43;94913.81;;;6.78;78.88
59829;BME280;45708;51.848;107.620;2022-08-25T16:12:44;94928.75;;;6.70;79.21
59829;BME280;45708;51.848;107.620;2022-08-25T16:17:45;94930.78;;;6.75;78.45
59829;BME280;45708;51.848;107.620;2022-08-25T16:22:46;94925.94;;;6.72;79.18
59829;BME280;45708;51.848;107.620;2022-08-25T16:27:47;94924.72;;;6.68;78.80
59829;BME280;45708;51.848;107.620;2022-08-25T16:32:48;94914.22;;;6.75;78.58
59829;BME280;45708;51.848;107.620;2022-08-25T16:37:49;94906.53;;;6.80;78.18
59829;BME280;45708;51.848;107.620;2022-08-25T16:42:53;94916.47;;;6.91;78.49
59829;BME280;45708;51.848;107.620;2022-08-25T16:47:54;94910.19;;;6.98;78.46
59829;BME280;45708;51.848;107.620;2022-08-25T16:52:56;94908.59;;;6.91;78.21
59829;BME280;45708;51.848;107.620;2022-08-25T16:57:58;94870.97;;;6.51;79.21
59829;BME280;45708;51.848;107.620;2022-08-25T17:03:01;94921.88;;;6.76;79.62
59829;BME280;45708;51.848;107.620;2022-08-25T17:08:03;94912.84;;;6.85;78.81
59829;BME280;45708;51.848;107.620;2022-08-25T17:13:04;94912.66;;;7.13;78.74
59829;BME280;45708;51.848;107.620;2022-08-25T17:18:05;94910.63;;;7.42;78.10
59829;BME280;45708;51.848;107.620;2022-08-25T17:23:06;94903.94;;;7.66;77.39
59829;BME280;45708;51.848;107.620;2022-08-25T17:28:07;94912.19;;;7.82;77.76
59829;BME280;45708;51.848;107.620;2022-08-25T17:33:07;94912.31;;;8.01;77.31
59829;BME280;45708;51.848;107.620;2022-08-25T17:38:09;94910.50;;;8.08;76.97
59829;BME280;45708;51.848;107.620;2022-08-25T17:43:11;94913.72;;;8.10;77.25
59829;BME280;45708;51.848;107.620;2022-08-25T17:48:12;94908.06;;;8.00;77.40
59829;BME280;45708;51.848;107.620;2022-08-25T17:53:13;94908.94;;;7.80;77.81
59829;BME280;45708;51.848;107.620;2022-08-25T17:58:15;94922.31;;;7.59;78.58
59829;BME280;45708;51.848;107.620;2022-08-25T18:03:16;94926.81;;;7.25;79.11
59829;BME280;45708;51.848;107.620;2022-08-25T18:08:17;94927.56;;;6.93;79.54
59829;BME280;45708;51.848;107.620;2022-08-25T18:13:18;94923.91;;;6.81;79.36
59829;BME280;45708;51.848;107.620;2022-08-25T18:18:19;94921.50;;;6.79;79.92
59829;BME280;45708;51.848;107.620;2022-08-25T18:23:19;94911.41;;;6.83;80.07
59829;BME280;45708;51.848;107.620;2022-08-25T18:28:20;94906.97;;;6.83;79.88
59829;BME280;45708;51.848;107.620;2022-08-25T18:33:21;94904.56;;;6.88;79.81
59829;BME280;45708;51.848;107.620;2022-08-25T18:38:22;94919.28;;;6.89;79.57
59829;BME280;45708;51.848;107.620;2022-08-25T18:43:23;94910.38;;;6.70;79.95
59829;BME280;45708;51.848;107.620;2022-08-25T18:48:25;94924.47;;;6.56;80.73
59829;BME280;45708;51.848;107.620;2022-08-25T18:53:28;94925.69;;;6.54;81.15
59829;BME280;45708;51.848;107.620;2022-08-25T18:58:30;94912.97;;;6.57;80.64
59829;BME280;45708;51.848;107.620;2022-08-25T19:03:31;94920.09;;;6.83;80.08
59829;BME280;45708;51.848;107.620;2022-08-25T19:08:32;94906.34;;;6.61;80.33
59829;BME280;45708;51.848;107.620;2022-08-25T19:13:33;94917.00;;;6.53;81.06
59829;BME280;45708;51.848;107.620;2022-08-25T19:18:33;94924.66;;;6.48;80.88
59829;BME280;45708;51.848;107.620;2022-08-25T19:23:34;94920.22;;;6.55;81.41
59829;BME280;45708;51.848;107.620;2022-08-25T19:28:35;94928.34;;;6.74;81.12
59829;BME280;45708;51.848;107.620;2022-08-25T19:33:36;94923.75;;;6.89;81.11
59829;BME280;45708;51.848;107.620;2022-08-25T19:38:37;94927.81;;;7.11;80.04
59829;BME280;45708;51.848;107.620;2022-08-25T19:43:38;94914.09;;;7.22;80.57
59829;BME280;45708;51.848;107.620;2022-08-25T19:48:39;94924.97;;;7.32;79.53
59829;BME280;45708;51.848;107.620;2022-08-25T19:53:41;94921.16;;;7.28;79.78
59829;BME280;45708;51.848;107.620;2022-08-25T19:58:42;94933.28;;;7.29;79.84
59829;BME280;45708;51.848;107.620;2022-08-25T20:03:43;94934.47;;;7.33;80.12
59829;BME280;45708;51.848;107.620;2022-08-25T20:08:44;94929.41;;;7.39;79.48
59829;BME280;45708;51.848;107.620;2022-08-25T20:19:41;94931.44;;;7.50;79.83
59829;BME280;45708;51.848;107.620;2022-08-25T20:24:42;94940.53;;;7.67;79.78
59829;BME280;45708;51.848;107.620;2022-08-25T20:29:43;94938.88;;;7.79;79.82
59829;BME280;45708;51.848;107.620;2022-08-25T20:34:45;94938.06;;;7.92;79.19
59829;BME280;45708;51.848;107.620;2022-08-25T20:39:46;94927.91;;;7.96;79.30
59829;BME280;45708;51.848;107.620;2022-08-25T20:44:47;94944.13;;;7.92;79.21
59829;BME280;45708;51.848;107.620;2022-08-25T20:49:48;94939.69;;;7.73;79.26
59829;BME280;45708;51.848;107.620;2022-08-25T20:54:49;94949.03;;;7.49;80.38
59829;BME280;45708;51.848;107.620;2022-08-25T20:59:50;94956.91;;;7.36;79.83
59829;BME280;45708;51.848;107.620;2022-08-25T21:04:52;94951.06;;;7.27;80.97
59829;BME280;45708;51.848;107.620;2022-08-25T21:09:53;94957.09;;;7.15;81.21
59829;BME280;45708;51.848;107.620;2022-08-25T21:14:54;94958.69;;;6.96;80.97
59829;BME280;45708;51.848;107.620;2022-08-25T21:19:55;94960.66;;;6.81;81.03
59829;BME280;45708;51.848;107.620;2022-08-25T21:24:56;94958.84;;;6.75;81.86
59829;BME280;45708;51.848;107.620;2022-08-25T21:29:56;94961.66;;;6.66;82.00
59829;BME280;45708;51.848;107.620;2022-08-25T21:34:57;94961.44;;;6.61;82.47
59829;BME280;45708;51.848;107.620;2022-08-25T21:39:58;94972.34;;;6.65;82.21
59829;BME280;45708;51.848;107.620;2022-08-25T21:44:59;94977.41;;;6.66;82.49
59829;BME280;45708;51.848;107.620;2022-08-25T21:50:00;94977.97;;;6.55;82.19
59829;BME280;45708;51.848;107.620;2022-08-25T21:55:01;94977.56;;;6.58;82.06
59829;BME280;45708;51.848;107.620;2022-08-25T22:00:05;94982.78;;;6.52;83.06
59829;BME280;45708;51.848;107.620;2022-08-25T22:05:07;94988.03;;;6.45;83.12
59829;BME280;45708;51.848;107.620;2022-08-25T22:10:08;94985.00;;;6.42;83.08
59829;BME280;45708;51.848;107.620;2022-08-25T22:15:10;94988.47;;;6.55;82.41
59829;BME280;45708;51.848;107.620;2022-08-25T22:20:11;94992.56;;;6.71;82.63
59829;BME280;45708;51.848;107.620;2022-08-25T22:25:12;94993.03;;;6.88;82.11
59829;BME280;45708;51.848;107.620;2022-08-25T22:30:13;94997.09;;;7.10;81.21
59829;BME280;45708;51.848;107.620;2022-08-25T22:35:14;94989.44;;;7.15;81.49
59829;BME280;45708;51.848;107.620;2022-08-25T22:40:15;94994.72;;;7.28;81.70
59829;BME280;45708;51.848;107.620;2022-08-25T22:45:16;94997.16;;;7.83;80.46
59829;BME280;45708;51.848;107.620;2022-08-25T22:50:17;94996.69;;;8.83;78.26
59829;BME280;45708;51.848;107.620;2022-08-25T22:55:18;95002.03;;;9.08;77.34
59829;BME280;45708;51.848;107.620;2022-08-25T23:00:19;95004.41;;;9.17;77.13
59829;BME280;45708;51.848;107.620;2022-08-25T23:05:20;95003.31;;;8.93;77.96
59829;BME280;45708;51.848;107.620;2022-08-25T23:10:21;95009.34;;;9.06;77.59
59829;BME280;45708;51.848;107.620;2022-08-25T23:15:22;95013.19;;;9.42;77.10
59829;BME280;45708;51.848;107.620;2022-08-25T23:20:23;95011.03;;;10.69;74.33
59829;BME280;45708;51.848;107.620;2022-08-25T23:25:24;95001.94;;;12.19;69.85
59829;BME280;45708;51.848;107.620;2022-08-25T23:30:25;95007.63;;;13.72;66.95
59829;BME280;45708;51.848;107.620;2022-08-25T23:35:26;95011.47;;;14.48;65.15
59829;BME280;45708;51.848;107.620;2022-08-25T23:40:27;95012.97;;;14.61;64.37
59829;BME280;45708;51.848;107.620;2022-08-25T23:45:28;95010.75;;;13.24;67.00
59829;BME280;45708;51.848;107.620;2022-08-25T23:50:29;95007.25;;;13.52;67.04
59829;BME280;45708;51.848;107.620;2022-08-25T23:55:30;94997.22;;;17.63;56.96
